Time,TemperatureF,DewpointF,PressureIn,WindDirection,WindDirectionDegrees,WindSpeedMPH,WindSpeedGustMPH,Humidity,HourlyPrecipIn,Conditions,Clouds,dailyrainin,SoftwareType,DateUTC
2013-08-16 00:00:00,57.2,49.7,29.71,South,180,0.0,0.0,76,0.00,,,0.00,WUHU216HW,2013-08-16 04:00:00,
2013-08-16 00:01:00,57.2,49.7,29.71,South,180,0.0,0.0,76,0.00,,,0.00,WUHU216HW,2013-08-16 04:01:00,
2013-08-16 00:06:00,57.2,49.7,29.71,South,180,0.0,0.0,76,0.00,,,0.00,WUHU216HW,2013-08-16 04:06:00,
2013-08-16 00:30:00,56.5,49.0,29.71,South,180,0.0,0.0,76,0.00,,,0.00,WUHU216HW,2013-08-16 04:30:00,
2013-08-16 00:35:00,56.5,49.0,29.71,South,180,0.0,0.0,76,0.00,,,0.00,WUHU216HW,2013-08-16 04:35:00,
2013-08-16 01:00:00,55.8,49.0,29.70,SSE,158,1.1,1.1,78,0.00,,,0.00,WUHU216HW,2013-08-16 05:00:00,
2013-08-16 01:05:00,55.8,49.0,29.70,SSE,158,1.1,1.1,78,0.00,,,0.00,WUHU216HW,2013-08-16 05:05:00,
2013-08-16 01:30:00,55.3,48.5,29.70,SSW,203,0.0,0.0,78,0.00,,,0.00,WUHU216HW,2013-08-16 05:30:00,
2013-08-16 01:35:00,55.3,48.5,29.70,SSW,203,0.0,0.0,78,0.00,,,0.00,WUHU216HW,2013-08-16 05:35:00,
2013-08-16 02:00:00,54.7,48.7,29.69,SSW,203,0.0,0.0,80,0.00,,,0.00,WUHU216HW,2013-08-16 06:00:00,
2013-08-16 02:05:00,54.7,48.7,29.69,SSW,203,0.0,0.0,80,0.00,,,0.00,WUHU216HW,2013-08-16 06:05:00,
2013-08-16 02:30:00,54.0,48.1,29.69,SSW,203,0.0,0.0,80,0.00,,,0.00,WUHU216HW,2013-08-16 06:30:00,
2013-08-16 02:35:00,54.0,48.1,29.69,SSW,203,0.0,0.0,80,0.00,,,0.00,WUHU216HW,2013-08-16 06:35:00,
2013-08-16 03:00:00,53.6,47.7,29.69,SSW,203,0.0,0.0,80,0.00,,,0.00,WUHU216HW,2013-08-16 07:00:00,
2013-08-16 03:05:00,53.6,47.7,29.69,SSW,203,0.0,0.0,80,0.00,,,0.00,WUHU216HW,2013-08-16 07:05:00,
2013-08-16 03:30:00,53.1,47.4,29.69,SSW,203,0.0,0.0,81,0.00,,,0.00,WUHU216HW,2013-08-16 07:30:00,
2013-08-16 03:35:00,53.1,47.4,29.69,SSW,203,0.0,0.0,81,0.00,,,0.00,WUHU216HW,2013-08-16 07:35:00,
2013-08-16 04:00:00,52.9,47.6,29.69,SSE,158,0.4,0.4,82,0.00,,,0.00,WUHU216HW,2013-08-16 08:00:00,
2013-08-16 04:05:00,52.9,47.6,29.69,SSE,158,0.4,0.4,82,0.00,,,0.00,WUHU216HW,2013-08-16 08:05:00,
2013-08-16 04:30:00,52.4,47.1,29.70,SSE,158,0.0,0.0,82,0.00,,,0.00,WUHU216HW,2013-08-16 08:30:00,
2013-08-16 04:35:00,52.4,47.1,29.70,SSE,158,0.0,0.0,82,0.00,,,0.00,WUHU216HW,2013-08-16 08:35:00,
2013-08-16 05:00:00,52.2,46.9,29.69,SSW,203,0.0,0.0,82,0.00,,,0.00,WUHU216HW,2013-08-16 09:00:00,
2013-08-16 05:05:00,52.2,46.9,29.69,SSW,203,0.0,0.0,82,0.00,,,0.00,WUHU216HW,2013-08-16 09:05:00,
2013-08-16 05:30:00,51.5,46.2,29.70,SSW,203,0.0,0.0,82,0.00,,,0.00,WUHU216HW,2013-08-16 09:30:00,
2013-08-16 05:35:00,51.5,46.2,29.70,SSW,203,0.0,0.0,82,0.00,,,0.00,WUHU216HW,2013-08-16 09:35:00,
2013-08-16 06:00:00,51.5,46.4,29.71,SSW,203,0.0,0.0,83,0.00,,,0.00,WUHU216HW,2013-08-16 10:00:00,
2013-08-16 06:05:00,51.5,46.4,29.71,SSW,203,0.0,0.0,83,0.00,,,0.00,WUHU216HW,2013-08-16 10:05:00,
2013-08-16 06:30:00,50.9,45.9,29.71,SSW,203,0.0,0.0,83,0.00,,,0.00,WUHU216HW,2013-08-16 10:30:00,
2013-08-16 06:35:00,50.9,45.9,29.71,SSW,203,0.0,0.0,83,0.00,,,0.00,WUHU216HW,2013-08-16 10:35:00,
2013-08-16 07:00:00,50.9,46.3,29.72,SSW,203,0.0,0.0,84,0.00,,,0.00,WUHU216HW,2013-08-16 11:00:00,
2013-08-16 07:05:00,50.9,46.3,29.72,SSW,203,0.0,0.0,84,0.00,,,0.00,WUHU216HW,2013-08-16 11:05:00,
2013-08-16 07:30:00,51.3,46.9,29.73,SSW,203,0.0,0.0,85,0.00,,,0.00,WUHU216HW,2013-08-16 11:30:00,
2013-08-16 07:35:00,51.3,46.9,29.73,SSW,203,0.0,0.0,85,0.00,,,0.00,WUHU216HW,2013-08-16 11:35:00,
2013-08-16 08:00:00,52.9,48.8,29.73,SSE,158,0.0,0.0,86,0.00,,,0.00,WUHU216HW,2013-08-16 12:00:00,
2013-08-16 08:05:00,52.9,48.8,29.73,SSE,158,0.0,0.0,86,0.00,,,0.00,WUHU216HW,2013-08-16 12:05:00,
2013-08-16 08:30:00,55.3,50.8,29.73,SSE,158,0.0,0.0,85,0.00,,,0.00,WUHU216HW,2013-08-16 12:30:00,
2013-08-16 08:35:00,55.3,50.8,29.73,SSE,158,0.0,0.0,85,0.00,,,0.00,WUHU216HW,2013-08-16 12:35:00,
2013-08-16 09:00:00,58.0,53.1,29.73,South,180,0.2,0.2,84,0.00,,,0.00,WUHU216HW,2013-08-16 13:00:00,
2013-08-16 09:05:00,58.0,53.1,29.73,South,180,0.2,0.2,84,0.00,,,0.00,WUHU216HW,2013-08-16 13:05:00,
2013-08-16 09:30:00,60.7,54.9,29.73,SSW,203,1.1,1.1,81,0.00,,,0.00,WUHU216HW,2013-08-16 13:30:00,
2013-08-16 09:35:00,60.7,54.9,29.73,SSW,203,1.1,1.1,81,0.00,,,0.00,WUHU216HW,2013-08-16 13:35:00,
2013-08-16 10:00:00,63.7,57.4,29.73,North,0,0.0,0.0,80,0.00,,,0.00,WUHU216HW,2013-08-16 14:00:00,
2013-08-16 10:05:00,63.7,57.4,29.73,North,0,0.0,0.0,80,0.00,,,0.00,WUHU216HW,2013-08-16 14:05:00,
2013-08-16 10:30:00,66.2,57.7,29.73,North,0,0.0,0.0,74,0.00,,,0.00,WUHU216HW,2013-08-16 14:30:00,
2013-08-16 10:35:00,66.2,57.7,29.73,North,0,0.0,0.0,74,0.00,,,0.00,WUHU216HW,2013-08-16 14:35:00,
2013-08-16 11:00:00,68.4,57.0,29.73,North,0,0.0,0.0,67,0.00,,,0.00,WUHU216HW,2013-08-16 15:00:00,
2013-08-16 11:05:00,68.4,57.0,29.73,North,0,0.0,0.0,67,0.00,,,0.00,WUHU216HW,2013-08-16 15:05:00,
2013-08-16 11:30:00,70.6,58.2,29.73,SSW,203,2.5,2.5,65,0.00,,,0.00,WUHU216HW,2013-08-16 15:30:00,
2013-08-16 11:35:00,70.6,58.2,29.73,SSW,203,2.5,2.5,65,0.00,,,0.00,WUHU216HW,2013-08-16 15:35:00,
2013-08-16 12:00:00,76.0,61.1,29.72,SE,135,4.3,4.3,60,0.00,,,0.00,WUHU216HW,2013-08-16 16:00:00,
2013-08-16 12:05:00,76.0,61.1,29.72,SE,135,4.3,4.3,60,0.00,,,0.00,WUHU216HW,2013-08-16 16:05:00,
2013-08-16 12:30:00,74.9,59.6,29.72,North,0,0.0,0.0,59,0.00,,,0.00,WUHU216HW,2013-08-16 16:30:00,
2013-08-16 12:35:00,74.9,59.6,29.72,North,0,0.0,0.0,59,0.00,,,0.00,WUHU216HW,2013-08-16 16:35:00,
2013-08-16 13:00:00,76.5,58.1,29.72,North,0,0.0,0.0,53,0.00,,,0.00,WUHU216HW,2013-08-16 17:00:00,
2013-08-16 13:05:00,76.5,58.1,29.72,North,0,0.0,0.0,53,0.00,,,0.00,WUHU216HW,2013-08-16 17:05:00,
2013-08-16 13:30:00,76.0,59.1,29.71,North,0,0.0,0.0,56,0.00,,,0.00,WUHU216HW,2013-08-16 17:30:00,
2013-08-16 13:35:00,76.0,59.1,29.71,North,0,0.0,0.0,56,0.00,,,0.00,WUHU216HW,2013-08-16 17:35:00,
2013-08-16 14:00:00,77.8,57.7,29.71,SE,135,2.7,2.7,50,0.00,,,0.00,WUHU216HW,2013-08-16 18:00:00,
2013-08-16 14:05:00,77.8,57.7,29.71,SE,135,2.7,2.7,50,0.00,,,0.00,WUHU216HW,2013-08-16 18:05:00,
2013-08-16 14:30:00,78.7,56.7,29.71,SSW,203,2.0,2.0,47,0.00,,,0.00,WUHU216HW,2013-08-16 18:30:00,
2013-08-16 14:35:00,78.7,56.7,29.71,SSW,203,2.0,2.0,47,0.00,,,0.00,WUHU216HW,2013-08-16 18:35:00,
2013-08-16 15:00:00,79.0,59.4,29.70,SW,225,0.9,0.9,51,0.00,,,0.00,WUHU216HW,2013-08-16 19:00:00,
2013-08-16 15:05:00,79.0,59.4,29.70,SW,225,0.9,0.9,51,0.00,,,0.00,WUHU216HW,2013-08-16 19:05:00,
2013-08-16 15:30:00,79.2,57.2,29.69,SSE,158,2.2,2.2,47,0.00,,,0.00,WUHU216HW,2013-08-16 19:30:00,
2013-08-16 15:35:00,79.2,57.2,29.69,SSE,158,2.2,2.2,47,0.00,,,0.00,WUHU216HW,2013-08-16 19:35:00,
2013-08-16 16:00:00,81.0,58.1,29.69,ESE,113,0.4,0.4,46,0.00,,,0.00,WUHU216HW,2013-08-16 20:00:00,
2013-08-16 16:05:00,81.0,58.1,29.69,ESE,113,0.4,0.4,46,0.00,,,0.00,WUHU216HW,2013-08-16 20:05:00,
2013-08-16 16:30:00,80.1,59.9,29.69,North,0,0.0,0.0,50,0.00,,,0.00,WUHU216HW,2013-08-16 20:30:00,
2013-08-16 16:35:00,80.1,59.9,29.69,North,0,0.0,0.0,50,0.00,,,0.00,WUHU216HW,2013-08-16 20:35:00,
2013-08-16 17:00:00,79.2,57.8,29.69,SE,135,2.7,2.7,48,0.00,,,0.00,WUHU216HW,2013-08-16 21:00:00,
2013-08-16 17:05:00,79.2,57.8,29.69,SE,135,2.7,2.7,48,0.00,,,0.00,WUHU216HW,2013-08-16 21:05:00,
2013-08-16 17:30:00,78.8,58.7,29.70,ESE,113,1.1,1.1,50,0.00,,,0.00,WUHU216HW,2013-08-16 21:30:00,
2013-08-16 17:35:00,78.8,58.7,29.70,ESE,113,1.1,1.1,50,0.00,,,0.00,WUHU216HW,2013-08-16 21:35:00,
2013-08-16 18:00:00,77.9,58.4,29.70,SSE,158,1.1,1.1,51,0.00,,,0.00,WUHU216HW,2013-08-16 22:00:00,
2013-08-16 18:05:00,77.9,58.4,29.70,SSE,158,1.1,1.1,51,0.00,,,0.00,WUHU216HW,2013-08-16 22:05:00,
2013-08-16 18:30:00,79.9,60.2,29.71,ENE,68,1.8,1.8,51,0.00,,,0.00,WUHU216HW,2013-08-16 22:30:00,
2013-08-16 18:35:00,79.9,60.2,29.71,ENE,68,1.8,1.8,51,0.00,,,0.00,WUHU216HW,2013-08-16 22:35:00,
2013-08-16 19:00:00,76.7,58.2,29.70,ENE,68,0.4,0.4,53,0.00,,,0.00,WUHU216HW,2013-08-16 23:00:00,
2013-08-16 19:05:00,76.7,58.2,29.70,ENE,68,0.4,0.4,53,0.00,,,0.00,WUHU216HW,2013-08-16 23:05:00,
2013-08-16 19:30:00,75.1,57.8,29.71,ENE,68,0.9,0.9,55,0.00,,,0.00,WUHU216HW,2013-08-16 23:30:00,
2013-08-16 19:35:00,75.1,57.8,29.71,ENE,68,0.9,0.9,55,0.00,,,0.00,WUHU216HW,2013-08-16 23:35:00,
2013-08-16 20:00:00,71.3,56.3,29.71,ENE,68,0.0,0.0,59,0.00,,,0.00,WUHU216HW,2013-08-17 00:00:00,
2013-08-16 20:05:00,71.3,56.3,29.71,ENE,68,0.0,0.0,59,0.00,,,0.00,WUHU216HW,2013-08-17 00:05:00,
2013-08-16 20:30:00,69.5,55.9,29.71,ENE,68,0.0,0.0,62,0.00,,,0.00,WUHU216HW,2013-08-17 00:30:00,
2013-08-16 20:35:00,69.5,55.9,29.71,ENE,68,0.0,0.0,62,0.00,,,0.00,WUHU216HW,2013-08-17 00:35:00,
2013-08-16 21:00:00,67.3,55.1,29.72,North,0,0.0,0.0,65,0.00,,,0.00,WUHU216HW,2013-08-17 01:00:00,
2013-08-16 21:05:00,67.3,55.1,29.72,North,0,0.0,0.0,65,0.00,,,0.00,WUHU216HW,2013-08-17 01:05:00,
2013-08-16 21:30:00,65.3,54.9,29.74,ENE,68,0.0,0.0,69,0.00,,,0.00,WUHU216HW,2013-08-17 01:30:00,
2013-08-16 21:35:00,65.3,54.9,29.74,ENE,68,0.0,0.0,69,0.00,,,0.00,WUHU216HW,2013-08-17 01:35:00,
2013-08-16 22:00:00,64.1,54.5,29.74,ENE,68,0.0,0.0,71,0.00,,,0.00,WUHU216HW,2013-08-17 02:00:00,
2013-08-16 22:05:00,64.1,54.5,29.74,ENE,68,0.0,0.0,71,0.00,,,0.00,WUHU216HW,2013-08-17 02:05:00,
2013-08-16 22:30:00,62.3,53.5,29.74,North,0,0.0,0.0,73,0.00,,,0.00,WUHU216HW,2013-08-17 02:30:00,
2013-08-16 22:35:00,62.3,53.5,29.74,North,0,0.0,0.0,73,0.00,,,0.00,WUHU216HW,2013-08-17 02:35:00,
2013-08-16 23:00:00,61.6,53.2,29.75,North,0,0.0,0.0,74,0.00,,,0.00,WUHU216HW,2013-08-17 03:00:00,
2013-08-16 23:05:00,61.6,53.2,29.75,North,0,0.0,0.0,74,0.00,,,0.00,WUHU216HW,2013-08-17 03:05:00,
2013-08-16 23:30:00,60.5,52.9,29.75,North,0,0.0,0.0,76,0.00,,,0.00,WUHU216HW,2013-08-17 03:30:00,
2013-08-16 23:35:00,60.5,52.9,29.75,North,0,0.0,0.0,76,0.00,,,0.00,WUHU216HW,2013-08-17 03:35:00,